Time;durP1;ratioP1;P1;durP2;ratioP2;P2;SDS_P1;SDS_P2;PMS_P1;PMS_P2;Temp;Humidity;BMP_temperature;BMP_pressure;BME280_temperature;BME280_humidity;BME280_pressure;Samples;Min_cycle;Max_cycle;Signal;HPM_P1;HPM_P2
2021/07/13 00:00:25;;;;;;;6.30;2.58;;;24.40;96.70;;;;;;5054878;28;20064;-73
2021/07/13 00:02:53;;;;;;;4.95;2.38;;;24.40;96.70;;;;;;5057592;28;20041;-72
2021/07/13 00:05:22;;;;;;;8.18;2.63;;;24.40;96.70;;;;;;5055082;28;20123;-73
2021/07/13 00:07:52;;;;;;;4.78;2.20;;;24.30;96.70;;;;;;5045603;28;20379;-72
2021/07/13 00:10:22;;;;;;;4.82;2.50;;;24.10;96.70;;;;;;5059729;28;20625;-73
2021/07/13 00:12:52;;;;;;;5.45;2.35;;;24.10;96.70;;;;;;5041926;28;20044;-73
2021/07/13 00:15:23;;;;;;;5.72;2.70;;;24.10;96.70;;;;;;5037409;28;20270;-73
2021/07/13 00:17:55;;;;;;;3.58;2.38;;;24.20;96.70;;;;;;5038451;28;20132;-73
2021/07/13 00:20:24;;;;;;;3.83;2.80;;;24.20;96.70;;;;;;5040239;28;20049;-73
2021/07/13 00:22:53;;;;;;;11.65;3.40;;;24.20;96.70;;;;;;5035869;28;20253;-73
2021/07/13 00:25:22;;;;;;;5.38;2.90;;;24.30;96.70;;;;;;5036738;28;20135;-73
2021/07/13 00:27:50;;;;;;;6.60;3.25;;;24.30;96.70;;;;;;5041638;28;20578;-73
2021/07/13 00:30:20;;;;;;;7.72;3.70;;;24.20;96.70;;;;;;5035503;28;20162;-73
2021/07/13 00:32:49;;;;;;;5.95;4.00;;;24.20;96.70;;;;;;5038053;28;20445;-73
2021/07/13 00:35:19;;;;;;;9.93;3.90;;;24.20;96.70;;;;;;5040146;28;20514;-73
2021/07/13 00:37:48;;;;;;;7.78;4.53;;;24.20;96.70;;;;;;5034864;28;20094;-73
2021/07/13 00:40:18;;;;;;;6.10;3.80;;;24.20;96.70;;;;;;5039598;28;20044;-73
2021/07/13 00:42:48;;;;;;;5.88;2.67;;;24.20;96.70;;;;;;5037510;28;20128;-73
2021/07/13 00:45:17;;;;;;;7.85;2.33;;;24.10;96.70;;;;;;5041370;28;20045;-73
2021/07/13 00:47:48;;;;;;;3.35;1.73;;;24.10;96.70;;;;;;5039723;28;20057;-73
2021/07/13 00:50:21;;;;;;;5.35;1.77;;;24.00;96.70;;;;;;5041801;28;20059;-72
2021/07/13 00:52:50;;;;;;;3.83;1.60;;;23.90;96.70;;;;;;5037832;28;20037;-72
2021/07/13 00:55:19;;;;;;;7.65;1.70;;;23.90;96.70;;;;;;5042657;28;20049;-72
2021/07/13 00:57:47;;;;;;;5.22;1.70;;;23.90;96.70;;;;;;5040927;28;20048;-72
2021/07/13 01:00:17;;;;;;;3.58;1.75;;;23.90;96.70;;;;;;5041926;28;20139;-72
2021/07/13 01:02:49;;;;;;;5.60;1.80;;;23.90;96.70;;;;;;5040096;28;20103;-72
2021/07/13 01:05:21;;;;;;;3.97;1.55;;;23.90;96.70;;;;;;5046047;28;20045;-72
2021/07/13 01:08:02;;;;;;;4.85;1.70;;;23.90;96.70;;;;;;5041924;28;20045;-72
2021/07/13 01:10:38;;;;;;;2.20;1.70;;;23.80;96.70;;;;;;5040889;28;20446;-72
2021/07/13 01:13:13;;;;;;;3.67;1.95;;;23.80;96.70;;;;;;5038930;28;20048;-72
2021/07/13 01:15:48;;;;;;;3.10;2.23;;;23.70;96.70;;;;;;5054819;28;20487;-72
2021/07/13 01:18:21;;;;;;;4.95;2.30;;;23.70;96.70;;;;;;5031453;28;20084;-71
2021/07/13 01:21:04;;;;;;;5.00;2.45;;;23.70;96.70;;;;;;5047260;28;20545;-72
2021/07/13 01:23:54;;;;;;;3.22;2.17;;;23.60;96.70;;;;;;5044746;28;20048;-72
2021/07/13 01:26:36;;;;;;;4.47;2.10;;;23.50;96.70;;;;;;5057534;28;20207;-72
2021/07/13 01:29:11;;;;;;;3.60;2.13;;;23.50;96.70;;;;;;5061075;28;20447;-72
2021/07/13 01:31:43;;;;;;;4.85;2.13;;;23.50;96.70;;;;;;5062762;28;20071;-72
2021/07/13 01:34:17;;;;;;;5.68;2.33;;;23.50;96.70;;;;;;5042748;28;20599;-72
2021/07/13 01:36:50;;;;;;;1.70;1.50;;;23.50;96.70;;;;;;5046357;28;20417;-72
2021/07/13 01:39:20;;;;;;;5.50;1.98;;;23.40;96.70;;;;;;5061361;28;20080;-72
2021/07/13 01:41:52;;;;;;;7.88;2.25;;;23.40;96.70;;;;;;5057163;28;20071;-72
2021/07/13 01:44:24;;;;;;;2.92;1.98;;;23.40;96.70;;;;;;5038078;28;20391;-72
2021/07/13 01:46:53;;;;;;;5.18;1.92;;;23.30;96.70;;;;;;5043317;28;20051;-72
2021/07/13 01:49:24;;;;;;;4.35;2.47;;;23.40;96.70;;;;;;5046229;28;20498;-72
2021/07/13 01:51:59;;;;;;;5.78;2.45;;;23.30;96.70;;;;;;5043886;28;20128;-72
2021/07/13 01:54:30;;;;;;;8.55;2.75;;;23.10;96.70;;;;;;5041592;28;20045;-73
2021/07/13 01:57:00;;;;;;;9.43;2.60;;;23.00;96.70;;;;;;5050739;28;20052;-72
2021/07/13 01:59:32;;;;;;;3.80;1.95;;;23.00;96.70;;;;;;5060211;28;20070;-72
2021/07/13 02:02:03;;;;;;;3.83;1.98;;;23.00;96.70;;;;;;5034332;28;20133;-72
2021/07/13 02:04:34;;;;;;;4.03;1.73;;;22.90;96.70;;;;;;5055579;28;20095;-72
2021/07/13 02:07:07;;;;;;;5.75;2.10;;;22.90;96.70;;;;;;5060806;28;20261;-72
2021/07/13 02:09:37;;;;;;;4.50;2.00;;;22.90;96.70;;;;;;5060955;28;20094;-72
2021/07/13 02:12:07;;;;;;;3.17;1.98;;;22.90;96.70;;;;;;5060290;28;20049;-72
2021/07/13 02:14:37;;;;;;;5.50;2.00;;;22.90;96.70;;;;;;5053501;28;20241;-72
2021/07/13 02:17:06;;;;;;;3.20;2.28;;;22.90;96.70;;;;;;5044374;28;20657;-72
2021/07/13 02:19:35;;;;;;;7.60;2.25;;;22.90;96.70;;;;;;5023524;28;20056;-72
2021/07/13 02:22:04;;;;;;;6.07;2.47;;;22.90;96.70;;;;;;5040554;28;20041;-72
2021/07/13 02:24:32;;;;;;;7.65;2.63;;;22.80;96.70;;;;;;5057035;28;20037;-72
2021/07/13 02:27:03;;;;;;;4.88;2.17;;;22.80;96.70;;;;;;5042717;28;20040;-72
2021/07/13 02:29:38;;;;;;;6.03;2.17;;;22.90;96.70;;;;;;5037884;28;20043;-72
2021/07/13 02:32:10;;;;;;;3.53;1.95;;;22.90;96.70;;;;;;5054242;28;20052;-72
2021/07/13 02:34:43;;;;;;;3.38;1.90;;;22.90;96.70;;;;;;5040644;28;20056;-72
2021/07/13 02:37:13;;;;;;;6.45;2.15;;;22.90;96.70;;;;;;5042019;28;20804;-72
2021/07/13 02:39:43;;;;;;;6.28;1.90;;;22.90;96.70;;;;;;5059443;28;20056;-72
2021/07/13 02:42:12;;;;;;;5.00;2.10;;;22.90;96.70;;;;;;5040262;28;20052;-72
2021/07/13 02:44:43;;;;;;;4.15;2.05;;;22.90;96.70;;;;;;5041342;28;20081;-72
2021/07/13 02:47:14;;;;;;;3.80;1.92;;;22.90;96.70;;;;;;5059953;28;20051;-72
2021/07/13 02:49:47;;;;;;;4.75;2.28;;;23.00;96.70;;;;;;5058085;28;20493;-72
2021/07/13 02:52:17;;;;;;;5.43;2.47;;;23.00;96.70;;;;;;5062082;28;20367;-72
2021/07/13 02:54:49;;;;;;;4.63;2.03;;;23.00;96.70;;;;;;5042354;28;20044;-72
2021/07/13 02:57:17;;;;;;;3.72;2.05;;;23.00;96.70;;;;;;5060135;28;20048;-72
2021/07/13 02:59:48;;;;;;;5.22;2.28;;;23.00;96.70;;;;;;5059364;28;20040;-72
2021/07/13 03:02:18;;;;;;;2.50;1.90;;;23.00;96.70;;;;;;5061805;28;20051;-72
2021/07/13 03:04:48;;;;;;;3.22;2.10;;;22.90;96.70;;;;;;5060953;28;20037;-72
2021/07/13 03:07:18;;;;;;;2.78;1.90;;;23.00;96.70;;;;;;5059973;28;20863;-72
2021/07/13 03:09:48;;;;;;;3.40;1.77;;;23.00;96.70;;;;;;5045060;28;20036;-72
2021/07/13 03:12:17;;;;;;;4.55;2.33;;;23.00;96.70;;;;;;5043136;28;20043;-72
2021/07/13 03:14:48;;;;;;;5.47;1.60;;;23.00;96.70;;;;;;5030384;28;20568;-72
2021/07/13 03:17:18;;;;;;;7.88;2.63;;;23.00;96.70;;;;;;5030096;28;20197;-72
2021/07/13 03:19:46;;;;;;;5.25;2.15;;;23.00;96.70;;;;;;5040364;28;20044;-72
2021/07/13 03:22:20;;;;;;;6.30;1.67;;;23.00;96.70;;;;;;5029489;28;20751;-72
2021/07/13 03:24:49;;;;;;;3.75;1.52;;;23.00;96.70;;;;;;5037794;28;20112;-72
2021/07/13 03:27:20;;;;;;;5.20;1.88;;;23.00;96.70;;;;;;5037953;28;20546;-72
2021/07/13 03:29:52;;;;;;;4.85;1.70;;;23.00;96.70;;;;;;5040323;28;20045;-72
2021/07/13 03:32:21;;;;;;;4.88;2.10;;;22.80;96.70;;;;;;5035517;28;20045;-72
2021/07/13 03:34:51;;;;;;;6.43;2.00;;;22.70;96.70;;;;;;5041608;28;20052;-72
2021/07/13 03:37:20;;;;;;;3.25;2.15;;;22.70;96.70;;;;;;5038621;28;20065;-72
2021/07/13 03:39:49;;;;;;;3.03;1.70;;;22.80;96.70;;;;;;5036933;28;20132;-72
2021/07/13 03:42:18;;;;;;;5.43;2.35;;;22.80;96.70;;;;;;5035091;28;20053;-72
2021/07/13 03:44:47;;;;;;;6.63;2.50;;;22.90;96.70;;;;;;5034904;28;20045;-72
2021/07/13 03:47:19;;;;;;;4.32;2.20;;;22.80;96.70;;;;;;5040712;28;20325;-72
2021/07/13 03:49:50;;;;;;;3.60;2.10;;;22.80;96.70;;;;;;5038344;28;20083;-72
2021/07/13 03:52:19;;;;;;;5.07;2.78;;;22.80;96.70;;;;;;5032236;28;20053;-72
2021/07/13 03:54:47;;;;;;;7.30;3.70;;;22.80;96.70;;;;;;5040330;28;20037;-72
2021/07/13 03:57:16;;;;;;;6.00;3.05;;;22.70;96.70;;;;;;5039288;28;20064;-72
2021/07/13 03:59:44;;;;;;;3.63;2.40;;;22.70;96.70;;;;;;5036781;28;20124;-72
2021/07/13 04:02:13;;;;;;;5.05;2.40;;;22.70;96.70;;;;;;5036564;28;20487;-72
2021/07/13 04:04:43;;;;;;;6.72;2.13;;;22.80;96.70;;;;;;5035755;28;20077;-72
2021/07/13 04:07:11;;;;;;;3.42;2.20;;;22.80;96.70;;;;;;5040832;28;20102;-72
2021/07/13 04:09:40;;;;;;;3.97;2.17;;;22.90;96.70;;;;;;5037101;28;20065;-72
2021/07/13 04:12:09;;;;;;;6.05;2.05;;;22.80;96.70;;;;;;5041797;28;20146;-72
2021/07/13 04:14:37;;;;;;;6.88;2.20;;;22.80;96.70;;;;;;5040954;28;20046;-72
2021/07/13 04:17:10;;;;;;;3.97;2.00;;;22.80;96.70;;;;;;5044488;28;20103;-72
2021/07/13 04:19:39;;;;;;;3.10;1.80;;;22.80;96.70;;;;;;5060652;28;20036;-72
2021/07/13 04:22:08;;;;;;;3.72;1.70;;;22.90;96.70;;;;;;5061588;28;20433;-72
2021/07/13 04:24:37;;;;;;;4.93;2.22;;;22.90;96.70;;;;;;5061833;28;20511;-72
2021/07/13 04:27:05;;;;;;;7.50;2.20;;;23.00;96.70;;;;;;5062044;28;20381;-72
2021/07/13 04:29:33;;;;;;;6.00;2.08;;;23.00;96.70;;;;;;5061720;28;20037;-72
2021/07/13 04:32:02;;;;;;;3.67;1.88;;;23.00;96.70;;;;;;5041764;28;20059;-71
2021/07/13 04:34:31;;;;;;;4.78;1.88;;;23.00;96.70;;;;;;5062585;28;20037;-72
2021/07/13 04:36:59;;;;;;;2.97;1.80;;;23.00;96.70;;;;;;5060781;28;20123;-72
2021/07/13 04:39:29;;;;;;;5.13;1.83;;;23.00;96.70;;;;;;5061967;28;20070;-73
2021/07/13 04:41:57;;;;;;;5.47;1.98;;;23.00;96.70;;;;;;5062753;28;20044;-72
2021/07/13 04:44:25;;;;;;;3.53;1.92;;;23.00;96.70;;;;;;5047413;28;20041;-73
2021/07/13 04:46:54;;;;;;;4.15;2.13;;;23.00;96.70;;;;;;5062860;28;20483;-72
2021/07/13 04:49:22;;;;;;;4.97;1.80;;;23.10;96.70;;;;;;5063813;28;20044;-72
2021/07/13 04:51:51;;;;;;;6.03;2.42;;;23.20;96.70;;;;;;5044562;28;20794;-72
2021/07/13 04:54:19;;;;;;;7.43;1.98;;;23.20;96.70;;;;;;5057707;28;20040;-72
2021/07/13 04:56:49;;;;;;;4.72;2.20;;;23.20;96.70;;;;;;5042163;28;20045;-72
2021/07/13 04:59:17;;;;;;;3.65;2.40;;;23.20;96.70;;;;;;5061123;28;20052;-72
2021/07/13 05:01:45;;;;;;;5.65;2.10;;;23.20;96.70;;;;;;5064778;28;20566;-72
2021/07/13 05:04:15;;;;;;;4.65;2.00;;;23.30;96.70;;;;;;5059553;28;20056;-72
2021/07/13 05:06:43;;;;;;;2.95;1.80;;;23.30;96.70;;;;;;5059087;28;20525;-72
2021/07/13 05:09:12;;;;;;;3.13;1.58;;;23.20;96.70;;;;;;5060158;28;20607;-73
2021/07/13 05:11:40;;;;;;;6.85;2.13;;;23.20;96.70;;;;;;5041510;28;20056;-72
2021/07/13 05:14:10;;;;;;;4.03;1.80;;;23.20;96.70;;;;;;5046244;28;20120;-72
2021/07/13 05:16:38;;;;;;;4.55;2.28;;;23.20;96.70;;;;;;5042271;28;20416;-72
2021/07/13 05:19:08;;;;;;;4.90;2.08;;;23.30;96.70;;;;;;5041751;28;20118;-73
2021/07/13 05:21:39;;;;;;;5.63;2.40;;;23.30;96.70;;;;;;5038765;28;20106;-72
2021/07/13 05:24:08;;;;;;;7.05;2.40;;;23.30;96.70;;;;;;5044718;28;20810;-72
2021/07/13 05:26:36;;;;;;;9.05;2.65;;;23.30;96.70;;;;;;5036482;28;20094;-72
2021/07/13 05:29:06;;;;;;;12.98;2.72;;;23.20;96.70;;;;;;5041543;28;20138;-72
2021/07/13 05:31:35;;;;;;;10.57;3.13;;;23.30;96.70;;;;;;5032587;28;20139;-73
2021/07/13 05:34:04;;;;;;;9.45;3.55;;;23.30;96.70;;;;;;5037951;28;20452;-73
2021/07/13 05:36:32;;;;;;;8.70;4.40;;;23.40;96.70;;;;;;5041098;28;20035;-72
2021/07/13 05:39:00;;;;;;;15.35;5.80;;;23.50;96.70;;;;;;5038675;28;22000;-72
2021/07/13 05:41:28;;;;;;;17.10;5.93;;;23.50;96.70;;;;;;5033476;28;20132;-72
2021/07/13 05:43:57;;;;;;;12.07;4.30;;;23.50;96.70;;;;;;5040452;28;20217;-72
2021/07/13 05:46:26;;;;;;;12.60;5.45;;;23.40;96.70;;;;;;5040682;28;20566;-72
2021/07/13 05:48:55;;;;;;;9.10;5.22;;;23.40;96.70;;;;;;5041239;28;20044;-71
2021/07/13 05:51:24;;;;;;;14.20;5.50;;;23.40;96.70;;;;;;5040000;28;20047;-74
2021/07/13 05:53:52;;;;;;;12.75;5.15;;;23.40;96.70;;;;;;5042280;28;20048;-74
2021/07/13 05:56:20;;;;;;;16.85;5.43;;;23.40;96.70;;;;;;5039319;28;20491;-73
2021/07/13 05:58:48;;;;;;;9.25;4.80;;;23.40;96.70;;;;;;5030939;28;20978;-74
2021/07/13 06:01:16;;;;;;;8.45;4.95;;;23.50;96.70;;;;;;5037437;28;20033;-75
2021/07/13 06:03:44;;;;;;;9.68;4.20;;;23.50;96.70;;;;;;5042893;28;20045;-74
2021/07/13 06:06:14;;;;;;;10.43;4.30;;;23.50;96.70;;;;;;5042742;28;20037;-75
2021/07/13 06:08:42;;;;;;;15.40;5.10;;;23.50;96.70;;;;;;5044283;28;20041;-73
2021/07/13 06:11:11;;;;;;;8.73;3.88;;;23.60;96.70;;;;;;5038220;28;20064;-73
2021/07/13 06:13:39;;;;;;;9.63;3.78;;;23.60;96.70;;;;;;5038226;28;20119;-73
2021/07/13 06:16:08;;;;;;;7.35;2.95;;;23.50;96.70;;;;;;5060246;28;20095;-73
2021/07/13 06:18:36;;;;;;;8.27;3.47;;;23.50;96.70;;;;;;5044423;28;20132;-72
2021/07/13 06:21:05;;;;;;;7.53;3.10;;;23.50;96.70;;;;;;5060827;28;20045;-73
2021/07/13 06:23:35;;;;;;;11.07;3.03;;;23.50;96.70;;;;;;5058521;28;20050;-72
2021/07/13 06:26:04;;;;;;;9.73;3.60;;;23.50;96.70;;;;;;5061208;28;20544;-72
2021/07/13 06:28:32;;;;;;;7.88;3.65;;;23.60;96.70;;;;;;5057354;28;20498;-73
2021/07/13 06:31:00;;;;;;;11.32;3.58;;;23.60;96.70;;;;;;5045303;28;20046;-73
2021/07/13 06:33:29;;;;;;;8.70;3.17;;;23.70;96.70;;;;;;5041666;28;20794;-73
2021/07/13 06:35:57;;;;;;;6.63;3.22;;;23.70;96.70;;;;;;5044169;28;20425;-72
2021/07/13 06:38:25;;;;;;;9.02;4.18;;;23.70;96.70;;;;;;5028824;28;20127;-72
2021/07/13 06:40:55;;;;;;;9.20;3.40;;;23.60;96.70;;;;;;5060597;28;20388;-72
2021/07/13 06:43:23;;;;;;;11.15;3.28;;;23.70;96.70;;;;;;5060932;28;20044;-73
2021/07/13 06:45:51;;;;;;;10.02;3.40;;;23.70;96.70;;;;;;5039366;28;20672;-72
2021/07/13 06:48:19;;;;;;;7.82;3.30;;;23.70;96.70;;;;;;5053916;28;20125;-73
2021/07/13 06:50:47;;;;;;;6.90;2.90;;;23.80;96.70;;;;;;5061178;28;20444;-73
2021/07/13 06:53:16;;;;;;;4.80;3.00;;;23.90;96.70;;;;;;5060230;28;20040;-73
2021/07/13 06:55:44;;;;;;;9.57;3.30;;;23.90;96.70;;;;;;5058592;28;20527;-73
2021/07/13 06:58:13;;;;;;;9.63;3.15;;;24.00;96.70;;;;;;5060514;28;20051;-73
2021/07/13 07:00:41;;;;;;;9.45;3.05;;;24.10;96.70;;;;;;5036267;28;20589;-72
2021/07/13 07:03:10;;;;;;;6.30;3.10;;;24.10;96.70;;;;;;5060472;28;20067;-73
2021/07/13 07:05:40;;;;;;;6.32;3.10;;;24.10;96.70;;;;;;5057707;28;20793;-73
2021/07/13 07:08:08;;;;;;;9.40;3.15;;;24.10;96.70;;;;;;5061136;28;20394;-73
2021/07/13 07:10:37;;;;;;;7.70;3.38;;;24.10;96.70;;;;;;5042227;28;20030;-73
2021/07/13 07:13:05;;;;;;;7.68;3.15;;;24.20;96.70;;;;;;5055580;28;20119;-73
2021/07/13 07:15:35;;;;;;;9.05;3.75;;;24.30;96.70;;;;;;5059238;28;20077;-73
2021/07/13 07:18:04;;;;;;;9.30;4.15;;;24.30;96.70;;;;;;5060710;28;20044;-73
2021/07/13 07:20:33;;;;;;;8.43;3.97;;;24.40;96.70;;;;;;5024153;28;20048;-73
2021/07/13 07:23:02;;;;;;;12.63;4.88;;;24.50;96.70;;;;;;5060255;28;20029;-73
2021/07/13 07:25:33;;;;;;;14.15;5.57;;;24.50;96.70;;;;;;5047251;28;20099;-73
2021/07/13 07:28:02;;;;;;;9.57;4.90;;;24.50;96.70;;;;;;5060219;28;20556;-72
2021/07/13 07:30:31;;;;;;;9.85;3.70;;;24.50;96.70;;;;;;5055163;28;20086;-73
2021/07/13 07:33:00;;;;;;;9.55;3.78;;;24.40;96.70;;;;;;5055806;28;20068;-73
2021/07/13 07:35:29;;;;;;;9.15;3.70;;;24.40;96.70;;;;;;5043910;28;20048;-73
2021/07/13 07:37:58;;;;;;;14.50;4.32;;;24.40;96.70;;;;;;5059807;28;20089;-73
2021/07/13 07:40:27;;;;;;;12.60;4.03;;;24.40;96.70;;;;;;5061149;28;20529;-73
2021/07/13 07:42:57;;;;;;;11.40;4.10;;;24.50;96.70;;;;;;5042717;28;20060;-73
2021/07/13 07:45:26;;;;;;;10.43;3.75;;;24.60;96.70;;;;;;5061809;28;20029;-73
2021/07/13 07:47:55;;;;;;;10.35;3.80;;;24.60;96.70;;;;;;5056405;28;20044;-73
2021/07/13 07:50:25;;;;;;;9.75;3.50;;;24.70;96.70;;;;;;5039626;28;20395;-73
2021/07/13 07:52:53;;;;;;;8.82;3.63;;;24.70;96.70;;;;;;5036910;28;20581;-73
2021/07/13 07:55:25;;;;;;;5.22;3.38;;;24.80;96.70;;;;;;5058172;28;20094;-73
2021/07/13 07:57:53;;;;;;;9.10;3.10;;;24.90;96.70;;;;;;5059158;28;20040;-73
2021/07/13 08:00:22;;;;;;;6.68;3.10;;;25.00;96.70;;;;;;5064153;28;20045;-73
2021/07/13 08:02:50;;;;;;;10.35;3.58;;;25.00;96.70;;;;;;5063349;28;20041;-73
2021/07/13 08:05:19;;;;;;;9.38;3.53;;;25.00;96.70;;;;;;5044399;28;20048;-73
2021/07/13 08:07:49;;;;;;;10.13;3.15;;;25.10;96.70;;;;;;5063719;28;20044;-73
2021/07/13 08:10:17;;;;;;;8.60;3.65;;;25.20;96.70;;;;;;5060464;28;20151;-73
2021/07/13 08:12:46;;;;;;;9.27;3.65;;;25.20;96.70;;;;;;5061971;28;20098;-73
2021/07/13 08:15:14;;;;;;;10.25;3.45;;;25.30;96.70;;;;;;5059432;28;20098;-73
2021/07/13 08:17:45;;;;;;;7.93;3.35;;;25.30;96.70;;;;;;5039970;28;20063;-73
2021/07/13 08:20:14;;;;;;;8.48;4.10;;;25.40;96.70;;;;;;5057297;28;20044;-73
2021/07/13 08:22:45;;;;;;;7.70;4.47;;;25.40;96.70;;;;;;5047581;28;20036;-73
2021/07/13 08:25:17;;;;;;;9.18;4.15;;;25.40;96.70;;;;;;5029984;28;20814;-73
2021/07/13 08:27:47;;;;;;;9.10;4.18;;;25.40;96.70;;;;;;5064923;28;20041;-73
2021/07/13 08:30:16;;;;;;;12.38;3.95;;;25.50;96.70;;;;;;5062929;28;20578;-73
2021/07/13 08:32:44;;;;;;;9.90;4.20;;;25.50;96.70;;;;;;5046155;28;20105;-73
2021/07/13 08:35:13;;;;;;;7.80;3.78;;;25.60;96.70;;;;;;5045815;28;20616;-73
2021/07/13 08:37:41;;;;;;;5.05;3.58;;;25.70;96.70;;;;;;5065147;28;20036;-72
2021/07/13 08:40:12;;;;;;;8.68;4.13;;;25.80;96.70;;;;;;5045666;28;20060;-72
2021/07/13 08:42:44;;;;;;;7.85;3.30;;;25.90;96.70;;;;;;5047702;28;20037;-73
2021/07/13 08:45:15;;;;;;;8.07;3.80;;;26.10;96.70;;;;;;5057301;28;20591;-73
2021/07/13 08:47:44;;;;;;;6.63;3.53;;;26.30;96.70;;;;;;5064387;28;20124;-73
2021/07/13 08:50:14;;;;;;;9.32;2.97;;;26.60;96.70;;;;;;5064421;28;20037;-73
2021/07/13 08:52:43;;;;;;;12.82;4.22;;;26.70;96.70;;;;;;5065325;28;20383;-73
2021/07/13 08:55:13;;;;;;;13.82;4.85;;;26.90;96.70;;;;;;5041288;28;20041;-73
2021/07/13 08:57:44;;;;;;;10.50;4.53;;;27.00;96.70;;;;;;5063864;28;20630;-73
2021/07/13 09:00:15;;;;;;;8.77;4.30;;;27.10;96.70;;;;;;5045336;28;20713;-72
2021/07/13 09:03:07;;;;;;;14.50;4.45;;;27.20;96.70;;;;;;5042460;28;20442;-73
2021/07/13 09:05:48;;;;;;;12.60;3.42;;;27.30;96.40;;;;;;5062646;28;20037;-73
2021/07/13 09:08:23;;;;;;;8.07;3.20;;;27.30;96.70;;;;;;5061567;28;20048;-73
2021/07/13 09:11:13;;;;;;;11.38;4.07;;;27.20;96.70;;;;;;5061362;28;20037;-74
2021/07/13 09:13:45;;;;;;;11.63;3.65;;;27.10;96.70;;;;;;5061116;28;20040;-73
2021/07/13 09:16:15;;;;;;;11.45;3.58;;;26.90;96.70;;;;;;5061641;28;20049;-73
2021/07/13 09:18:45;;;;;;;9.15;3.38;;;26.80;96.70;;;;;;5061963;28;20045;-74
2021/07/13 09:21:16;;;;;;;10.70;3.50;;;26.70;96.70;;;;;;5063372;28;20039;-73
2021/07/13 09:24:17;;;;;;;11.63;3.00;;;26.60;96.70;;;;;;5064257;28;20044;-74
2021/07/13 09:26:48;;;;;;;9.82;4.20;;;26.50;96.70;;;;;;4962824;28;20051;-73
2021/07/13 09:29:34;;;;;;;11.60;3.30;;;26.50;96.70;;;;;;4954886;28;20058;-73
2021/07/13 09:32:37;;;;;;;12.70;3.72;;;26.50;96.70;;;;;;4941754;28;20046;-73
2021/07/13 09:35:09;;;;;;;8.88;3.92;;;26.40;96.70;;;;;;4925010;29;20149;-73
2021/07/13 09:37:43;;;;;;;12.90;4.32;;;26.30;96.70;;;;;;4922938;29;20420;-73
2021/07/13 09:40:14;;;;;;;14.65;4.40;;;26.30;96.70;;;;;;4921504;29;20383;-73
2021/07/13 09:42:44;;;;;;;10.43;4.05;;;26.30;96.70;;;;;;4916607;29;20050;-73
2021/07/13 09:45:20;;;;;;;17.58;3.97;;;26.20;96.70;;;;;;4921919;29;20056;-73
2021/07/13 09:47:50;;;;;;;12.68;3.95;;;26.20;96.70;;;;;;4921692;29;20569;-73
2021/07/13 09:50:35;;;;;;;16.98;4.70;;;26.00;96.70;;;;;;4904582;29;20060;-74
2021/07/13 09:53:06;;;;;;;12.60;4.05;;;25.90;96.70;;;;;;4904518;29;20049;-74
2021/07/13 09:55:35;;;;;;;12.63;4.35;;;25.80;96.70;;;;;;4904902;29;20620;-75
2021/07/13 09:58:15;;;;;;;14.52;4.85;;;25.70;96.70;;;;;;4904555;29;20052;-75
2021/07/13 10:00:47;;;;;;;17.38;6.07;;;25.60;96.70;;;;;;4955320;28;20054;-74
2021/07/13 10:03:17;;;;;;;13.30;4.80;;;25.50;96.70;;;;;;4979745;28;20582;-75
2021/07/13 10:05:47;;;;;;;10.60;4.30;;;24.90;96.70;;;;;;5020938;28;20407;-75
2021/07/13 10:08:16;;;;;;;10.82;4.78;;;24.00;96.70;;;;;;5039421;28;20429;-74
2021/07/13 10:10:46;;;;;;;10.85;4.15;;;23.00;96.70;;;;;;5020135;28;20033;-75
2021/07/13 10:13:15;;;;;;;14.60;5.65;;;22.60;96.70;;;;;;5057821;28;20090;-75
2021/07/13 10:15:48;;;;;;;15.70;5.25;;;22.30;96.70;;;;;;5035050;28;20389;-74
2021/07/13 10:18:27;;;;;;;16.05;6.05;;;21.90;96.70;;;;;;5021833;28;20057;-73
2021/07/13 10:21:09;;;;;;;15.20;5.30;;;21.50;96.70;;;;;;4988071;28;20051;-72
2021/07/13 10:24:25;;;;;;;13.23;5.00;;;21.10;96.70;;;;;;4937529;28;20438;-71
2021/07/13 10:27:03;;;;;;;14.35;5.45;;;20.90;96.70;;;;;;4939910;28;20591;-71
2021/07/13 10:29:40;;;;;;;9.45;4.88;;;21.00;96.70;;;;;;4939233;28;20441;-72
2021/07/13 10:32:38;;;;;;;10.98;4.95;;;21.10;96.70;;;;;;4943637;28;20043;-72
2021/07/13 10:35:23;;;;;;;14.02;5.30;;;21.20;96.70;;;;;;4934945;28;20046;-72
2021/07/13 10:37:52;;;;;;;9.80;4.45;;;21.10;96.70;;;;;;4943131;28;20051;-72
2021/07/13 10:40:39;;;;;;;7.15;4.05;;;21.10;96.70;;;;;;4924048;28;20062;-72
2021/07/13 10:43:17;;;;;;;6.72;4.10;;;21.30;96.70;;;;;;4944066;28;20413;-72
2021/07/13 10:45:46;;;;;;;9.98;4.30;;;21.50;96.70;;;;;;4925884;29;20062;-71
2021/07/13 10:48:17;;;;;;;9.75;4.25;;;21.70;96.70;;;;;;4940420;28;20040;-72
2021/07/13 10:50:54;;;;;;;10.95;4.72;;;22.10;96.70;;;;;;4942297;28;20062;-71
2021/07/13 10:53:32;;;;;;;8.88;4.82;;;22.30;96.70;;;;;;4938547;28;20043;-72
2021/07/13 10:56:03;;;;;;;8.77;4.30;;;22.60;96.70;;;;;;5043028;28;20041;-72
2021/07/13 10:58:41;;;;;;;7.40;4.32;;;22.90;96.70;;;;;;5039265;28;20033;-72
2021/07/13 11:01:27;;;;;;;10.95;4.68;;;23.30;96.70;;;;;;5039790;28;20065;-72
2021/07/13 11:04:05;;;;;;;9.02;4.85;;;23.60;96.70;;;;;;5033958;28;20041;-72
2021/07/13 11:06:44;;;;;;;7.60;4.72;;;23.50;96.70;;;;;;5037962;28;20299;-72
2021/07/13 11:09:33;;;;;;;10.63;4.22;;;23.60;96.70;;;;;;5040666;28;20041;-72
2021/07/13 11:12:14;;;;;;;11.80;4.82;;;24.10;96.70;;;;;;5035805;28;20588;-72
2021/07/13 11:14:53;;;;;;;8.88;4.35;;;24.20;96.70;;;;;;5042513;28;20057;-72
2021/07/13 11:17:22;;;;;;;9.35;5.18;;;24.40;96.70;;;;;;5056663;28;20040;-72
2021/07/13 11:19:58;;;;;;;10.82;5.30;;;24.60;96.70;;;;;;5044518;28;20517;-72
2021/07/13 11:22:26;;;;;;;9.80;5.30;;;24.70;96.70;;;;;;5041765;28;20048;-72
2021/07/13 11:24:54;;;;;;;9.45;5.03;;;24.80;96.70;;;;;;5061712;28;20516;-72
2021/07/13 11:27:22;;;;;;;7.43;4.60;;;25.10;96.70;;;;;;5059287;28;20041;-72
2021/07/13 11:29:52;;;;;;;7.28;4.18;;;25.20;96.70;;;;;;5060742;28;20123;-72
2021/07/13 11:32:21;;;;;;;4.40;3.15;;;25.40;96.70;;;;;;5025459;28;20044;-72
2021/07/13 11:34:51;;;;;;;7.45;3.70;;;25.50;96.70;;;;;;5028232;28;20044;-72
2021/07/13 11:37:23;;;;;;;4.80;3.45;;;25.80;96.70;;;;;;5056926;28;20090;-72
2021/07/13 11:40:01;;;;;;;5.45;3.00;;;25.60;96.70;;;;;;5041085;28;20037;-72
2021/07/13 11:42:29;;;;;;;4.15;2.80;;;25.70;96.70;;;;;;5043941;28;20068;-72
2021/07/13 11:45:02;;;;;;;5.32;3.13;;;26.00;96.70;;;;;;5044012;28;20123;-72
2021/07/13 11:47:31;;;;;;;5.28;3.00;;;26.00;96.70;;;;;;5057737;28;20119;-72
2021/07/13 11:50:00;;;;;;;7.60;3.80;;;26.00;96.70;;;;;;5061063;28;20135;-72
2021/07/13 11:52:28;;;;;;;5.80;3.10;;;25.90;96.70;;;;;;5027905;28;20123;-72
2021/07/13 11:54:58;;;;;;;8.00;4.25;;;25.90;96.70;;;;;;5041627;28;20047;-72
2021/07/13 11:57:27;;;;;;;8.55;3.67;;;25.90;96.70;;;;;;5061170;28;20051;-72
2021/07/13 11:59:55;;;;;;;11.55;4.25;;;26.10;96.70;;;;;;5060520;28;20044;-72
2021/07/13 12:02:23;;;;;;;11.57;4.75;;;26.50;96.70;;;;;;5058305;28;20123;-72
2021/07/13 12:04:51;;;;;;;9.98;4.47;;;26.80;96.70;;;;;;5041372;28;21060;-72
2021/07/13 12:07:20;;;;;;;10.13;4.97;;;27.20;96.70;;;;;;5058037;28;20055;-73
2021/07/13 12:09:49;;;;;;;8.40;5.00;;;27.50;96.70;;;;;;5057881;28;20164;-72
2021/07/13 12:12:18;;;;;;;12.82;4.68;;;27.60;96.70;;;;;;5055977;28;20073;-72
2021/07/13 12:14:51;;;;;;;10.52;4.97;;;27.50;96.70;;;;;;5059771;28;20048;-72
2021/07/13 12:17:21;;;;;;;13.63;5.10;;;27.30;96.70;;;;;;5060505;28;20052;-72
2021/07/13 12:19:50;;;;;;;9.35;4.78;;;27.30;96.70;;;;;;5058320;28;20043;-72
2021/07/13 12:22:23;;;;;;;13.77;5.28;;;27.40;96.70;;;;;;5060477;28;20139;-72
2021/07/13 12:24:59;;;;;;;10.90;4.60;;;27.60;96.70;;;;;;5056795;28;20040;-72
2021/07/13 12:27:32;;;;;;;11.15;5.63;;;27.50;96.70;;;;;;5040213;28;20045;-72
2021/07/13 12:30:08;;;;;;;14.82;5.32;;;27.30;96.70;;;;;;5057393;28;20043;-72
2021/07/13 12:32:37;;;;;;;10.20;4.90;;;27.30;96.70;;;;;;5061352;28;20125;-72
2021/07/13 12:35:11;;;;;;;10.07;4.68;;;27.20;96.70;;;;;;5059018;28;20044;-73
2021/07/13 12:37:42;;;;;;;12.73;4.25;;;27.10;96.70;;;;;;5042692;28;20036;-72
2021/07/13 12:40:12;;;;;;;10.23;3.88;;;27.10;96.70;;;;;;5041333;28;20033;-73
2021/07/13 12:42:43;;;;;;;4.93;3.50;;;27.00;96.70;;;;;;5051704;28;20040;-73
2021/07/13 12:45:13;;;;;;;6.38;3.38;;;26.90;96.70;;;;;;5060644;28;20049;-73
2021/07/13 12:47:44;;;;;;;7.22;3.65;;;26.90;96.70;;;;;;5047694;28;20044;-72
2021/07/13 12:50:23;;;;;;;6.93;3.15;;;26.70;96.70;;;;;;5061419;28;20047;-73
2021/07/13 12:52:58;;;;;;;8.02;3.75;;;26.70;96.70;;;;;;5043267;28;20067;-73
2021/07/13 12:55:35;;;;;;;6.82;3.75;;;26.80;96.70;;;;;;5064353;28;20045;-73
2021/07/13 12:58:14;;;;;;;12.10;4.00;;;26.90;96.70;;;;;;5061970;28;20768;-73
2021/07/13 13:00:45;;;;;;;7.78;3.40;;;26.80;96.70;;;;;;5042148;28;20044;-73
2021/07/13 13:03:15;;;;;;;6.85;3.63;;;26.80;96.70;;;;;;5060589;28;20044;-73